createdAt,value
2018-04-10T00:00:09.477Z,5.70
2018-04-10T00:02:36.968Z,5.70
2018-04-10T00:05:04.448Z,5.70
2018-04-10T00:07:31.936Z,5.70
2018-04-10T00:10:00.193Z,5.80
2018-04-10T00:12:27.672Z,5.70
2018-04-10T00:14:55.917Z,5.70
2018-04-10T00:17:23.413Z,5.70
2018-04-10T00:19:50.905Z,5.80
2018-04-10T00:22:18.401Z,5.80
2018-04-10T00:24:45.937Z,5.80
2018-04-10T00:27:13.441Z,5.70
2018-04-10T00:29:40.933Z,5.70
2018-04-10T00:32:08.441Z,5.70
2018-04-10T00:34:36.696Z,5.90
2018-04-10T00:37:04.185Z,5.90
2018-04-10T00:39:31.693Z,5.80
2018-04-10T00:41:59.186Z,5.80
2018-04-10T00:44:27.440Z,5.60
2018-04-10T00:46:54.940Z,5.60
2018-04-10T00:49:22.450Z,5.40
2018-04-10T00:51:49.932Z,5.20
2018-04-10T00:54:18.177Z,4.90
2018-04-10T00:56:45.681Z,4.90
2018-04-10T00:59:13.168Z,4.80
2018-04-10T01:01:40.646Z,4.80
2018-04-10T01:04:08.117Z,4.90
2018-04-10T01:06:35.577Z,5.00
2018-04-10T01:09:03.080Z,4.90
2018-04-10T01:11:30.540Z,4.90
2018-04-10T01:13:58.043Z,4.90
2018-04-10T01:16:25.513Z,4.80
2018-04-10T01:18:53.753Z,4.80
2018-04-10T01:21:21.217Z,4.80
2018-04-10T01:23:48.731Z,4.80
2018-04-10T01:26:16.227Z,4.90
2018-04-10T01:28:43.723Z,4.90
2018-04-10T01:31:11.998Z,5.00
2018-04-10T01:33:40.216Z,5.00
2018-04-10T01:36:07.685Z,5.00
2018-04-10T01:38:36.295Z,5.10
2018-04-10T01:41:03.791Z,5.00
2018-04-10T01:43:31.298Z,5.00
2018-04-10T01:45:58.806Z,5.00
2018-04-10T01:48:26.274Z,4.90
2018-04-10T01:50:53.784Z,4.80
2018-04-10T01:53:21.238Z,4.90
2018-04-10T01:55:48.752Z,4.90
2018-04-10T01:58:16.256Z,4.80
2018-04-10T02:00:43.750Z,4.70
2018-04-10T02:03:11.246Z,4.70
2018-04-10T02:05:38.709Z,4.70
2018-04-10T02:08:06.192Z,4.60
2018-04-10T02:13:25.069Z,4.60
2018-04-10T02:15:53.399Z,4.60
2018-04-10T02:18:20.925Z,4.60
2018-04-10T02:20:48.432Z,4.60
2018-04-10T02:23:15.998Z,4.60
2018-04-10T02:25:43.566Z,4.60
2018-04-10T02:28:11.115Z,4.60
2018-04-10T02:30:38.637Z,4.60
2018-04-10T02:33:06.165Z,4.50
2018-04-10T02:35:34.440Z,4.40
2018-04-10T02:38:02.765Z,4.30
2018-04-10T02:40:30.330Z,4.30
2018-04-10T02:42:57.877Z,4.10
2018-04-10T02:45:25.443Z,3.90
2018-04-10T02:47:53.008Z,3.80
2018-04-10T02:50:20.524Z,3.80
2018-04-10T02:52:48.105Z,4.00
2018-04-10T02:55:15.693Z,4.00
2018-04-10T02:57:43.238Z,4.10
2018-04-10T03:00:10.769Z,4.20
2018-04-10T03:02:38.333Z,4.30
2018-04-10T03:05:05.840Z,4.30
2018-04-10T03:07:33.374Z,4.30
2018-04-10T03:10:00.902Z,4.00
2018-04-10T03:12:28.409Z,3.70
2018-04-10T03:14:55.936Z,3.60
2018-04-10T03:17:23.470Z,3.60
2018-04-10T03:19:50.980Z,3.70
2018-04-10T03:22:18.541Z,3.80
2018-04-10T03:24:46.101Z,3.80
2018-04-10T03:27:13.618Z,3.70
2018-04-10T03:29:41.161Z,3.60
2018-04-10T03:32:08.705Z,3.40
2018-04-10T03:34:36.981Z,3.30
2018-04-10T03:37:05.290Z,3.30
2018-04-10T03:39:32.877Z,3.30
2018-04-10T03:42:00.425Z,3.30
2018-04-10T03:44:27.941Z,3.30
2018-04-10T03:46:55.496Z,3.30
2018-04-10T03:49:23.805Z,3.30
2018-04-10T03:51:51.351Z,3.30
2018-04-10T03:54:18.903Z,3.30
2018-04-10T03:56:47.161Z,3.50
2018-04-10T03:59:15.394Z,3.50
2018-04-10T04:01:42.910Z,3.50
2018-04-10T04:04:11.149Z,3.60
2018-04-10T04:06:38.651Z,3.60
2018-04-10T04:09:06.147Z,3.70
2018-04-10T04:11:33.670Z,3.60
2018-04-10T04:14:01.171Z,3.60
2018-04-10T04:16:40.534Z,3.50
2018-04-10T04:19:19.810Z,3.50
2018-04-10T04:21:55.946Z,3.40
2018-04-10T04:24:24.198Z,3.40
2018-04-10T04:26:51.746Z,3.40
2018-04-10T04:29:19.230Z,3.40
2018-04-10T04:31:47.503Z,3.50
2018-04-10T04:34:15.773Z,3.50
2018-04-10T04:36:44.055Z,3.40
2018-04-10T04:39:12.285Z,3.40
2018-04-10T04:41:39.782Z,3.40
2018-04-10T04:44:07.286Z,3.50
2018-04-10T04:46:34.774Z,3.50
2018-04-10T04:49:03.213Z,3.60
2018-04-10T04:51:30.701Z,3.60
2018-04-10T04:53:58.173Z,3.60
2018-04-10T04:56:25.695Z,3.50
2018-04-10T04:58:53.178Z,3.50
2018-04-10T05:01:21.658Z,3.50
2018-04-10T05:03:49.117Z,3.50
2018-04-10T05:06:21.915Z,3.50
2018-04-10T05:08:50.438Z,3.60
2018-04-10T05:11:19.839Z,3.70
2018-04-10T05:13:47.359Z,3.90
2018-04-10T05:16:14.855Z,4.10
2018-04-10T05:18:42.313Z,4.30
2018-04-10T05:21:09.833Z,4.50
2018-04-10T05:23:37.335Z,4.70
2018-04-10T05:26:04.842Z,4.80
2018-04-10T05:28:32.360Z,4.90
2018-04-10T05:30:59.862Z,5.00
2018-04-10T05:33:27.334Z,4.90
2018-04-10T05:35:55.583Z,6.00
2018-04-10T05:38:23.049Z,6.00
2018-04-10T05:40:50.530Z,6.90
2018-04-10T05:43:17.989Z,8.20
2018-04-10T05:45:45.475Z,9.30
2018-04-10T05:48:12.954Z,10.20
2018-04-10T05:50:40.696Z,11.10
2018-04-10T05:53:08.183Z,11.80
2018-04-10T05:55:35.691Z,12.20
2018-04-10T05:58:03.162Z,12.80
2018-04-10T06:00:30.625Z,13.50
2018-04-10T06:02:58.104Z,13.50
2018-04-10T06:05:25.569Z,14.40
2018-04-10T06:07:53.074Z,15.60
2018-04-10T06:10:20.565Z,15.70
2018-04-10T06:12:48.066Z,15.70
2018-04-10T06:15:15.570Z,15.80
2018-04-10T06:17:43.152Z,16.00
2018-04-10T06:20:11.385Z,16.50
2018-04-10T06:22:38.894Z,16.50
2018-04-10T06:25:06.370Z,16.70
2018-04-10T06:27:34.620Z,17.60
2018-04-10T06:30:02.106Z,17.50
2018-04-10T06:32:30.361Z,18.80
2018-04-10T06:34:57.829Z,18.70
2018-04-10T06:37:26.177Z,18.80
2018-04-10T06:39:53.647Z,18.80
2018-04-10T06:42:21.166Z,19.00
2018-04-10T06:44:48.643Z,19.10
2018-04-10T06:47:16.126Z,19.80
2018-04-10T06:49:43.647Z,20.70
2018-04-10T06:52:11.143Z,22.10
2018-04-10T06:54:38.653Z,23.10
2018-04-10T06:57:06.167Z,23.50
2018-04-10T06:59:33.657Z,23.00
2018-04-10T07:02:01.153Z,24.00
2018-04-10T07:04:28.669Z,23.60
2018-04-10T07:06:57.047Z,24.40
2018-04-10T07:09:24.529Z,24.80
2018-04-10T07:11:52.145Z,25.20
2018-04-10T07:14:20.385Z,26.10
2018-04-10T07:16:47.945Z,26.10
2018-04-10T07:19:15.516Z,26.20
2018-04-10T07:21:43.029Z,25.80
2018-04-10T07:24:10.543Z,25.70
2018-04-10T07:26:38.029Z,26.30
2018-04-10T07:29:05.550Z,26.40
2018-04-10T07:31:33.065Z,25.60
2018-04-10T07:34:00.714Z,25.40
2018-04-10T07:36:28.253Z,26.10
2018-04-10T07:38:56.556Z,27.00
2018-04-10T07:41:24.067Z,26.90
2018-04-10T07:43:51.600Z,27.40
2018-04-10T07:46:19.106Z,27.60
2018-04-10T07:48:47.475Z,28.10
2018-04-10T07:51:15.769Z,28.00
2018-04-10T07:53:43.275Z,28.00
2018-04-10T07:56:10.762Z,28.20
2018-04-10T07:58:39.060Z,28.50
2018-04-10T08:01:06.620Z,28.50
2018-04-10T08:03:34.167Z,28.80
2018-04-10T08:06:02.457Z,28.20
2018-04-10T08:08:30.003Z,28.20
2018-04-10T08:10:57.507Z,28.20
2018-04-10T08:13:25.043Z,27.90
2018-04-10T08:15:52.546Z,28.00
2018-04-10T08:18:20.037Z,28.00
2018-04-10T08:20:48.309Z,28.30
2018-04-10T08:23:16.587Z,28.40
2018-04-10T08:25:44.896Z,28.80
2018-04-10T08:28:12.421Z,28.70
2018-04-10T08:30:40.674Z,29.30
2018-04-10T08:33:08.172Z,29.20
2018-04-10T08:35:35.653Z,29.60
2018-04-10T08:38:03.169Z,29.50
2018-04-10T08:40:31.471Z,29.60
2018-04-10T08:42:58.971Z,29.60
2018-04-10T08:45:26.453Z,29.40
2018-04-10T08:47:54.715Z,24.50
2018-04-10T08:50:22.228Z,24.40
2018-04-10T08:52:50.343Z,23.00
2018-04-10T08:55:17.839Z,22.00
2018-04-10T08:57:45.349Z,21.30
2018-04-10T09:00:12.880Z,20.80
2018-04-10T09:02:40.391Z,20.30
2018-04-10T09:05:08.666Z,19.80
2018-04-10T09:07:36.954Z,19.60
2018-04-10T09:10:05.218Z,19.30
2018-04-10T09:12:33.465Z,18.90
2018-04-10T09:15:00.987Z,18.90
2018-04-10T09:17:28.490Z,18.90
2018-04-10T09:19:55.996Z,18.90
2018-04-10T09:22:23.465Z,18.90
2018-04-10T09:24:51.008Z,18.80
2018-04-10T09:27:18.492Z,18.80
2018-04-10T09:29:45.958Z,18.90
2018-04-10T09:32:13.504Z,18.80
2018-04-10T09:34:41.011Z,18.70
2018-04-10T09:37:09.288Z,18.50
2018-04-10T09:39:37.562Z,18.60
2018-04-10T09:42:05.810Z,18.60
2018-04-10T09:44:33.366Z,18.60
2018-04-10T09:47:00.871Z,18.70
2018-04-10T09:49:29.167Z,18.90
2018-04-10T09:51:56.626Z,18.90
2018-04-10T09:54:24.106Z,19.10
2018-04-10T09:56:51.623Z,19.10
2018-04-10T09:59:19.132Z,19.10
2018-04-10T10:01:47.405Z,18.90
2018-04-10T10:04:14.901Z,18.90
2018-04-10T10:06:42.423Z,19.10
2018-04-10T10:09:09.901Z,19.20
2018-04-10T10:11:37.372Z,19.20
2018-04-10T10:14:05.694Z,19.30
2018-04-10T10:16:33.194Z,19.30
2018-04-10T10:19:00.663Z,19.20
2018-04-10T10:21:28.910Z,19.10
2018-04-10T10:23:56.431Z,19.10
2018-04-10T10:26:23.945Z,19.10
2018-04-10T10:28:52.204Z,19.20
2018-04-10T10:31:19.744Z,19.20
2018-04-10T10:33:47.218Z,19.30
2018-04-10T10:36:14.714Z,19.30
2018-04-10T10:38:42.240Z,19.30
2018-04-10T10:41:10.066Z,19.30
2018-04-10T10:43:38.344Z,19.20
2018-04-10T10:46:05.851Z,19.30
2018-04-10T10:48:34.128Z,19.20
2018-04-10T10:51:02.377Z,19.10
2018-04-10T10:53:29.895Z,19.10
2018-04-10T10:55:57.354Z,19.10
2018-04-10T10:58:24.899Z,19.00
2018-04-10T11:00:52.402Z,18.90
2018-04-10T11:03:19.914Z,18.90
2018-04-10T11:05:47.414Z,18.90
2018-04-10T11:08:14.883Z,18.90
2018-04-10T11:10:42.357Z,19.00
2018-04-10T11:13:10.659Z,19.00
2018-04-10T11:15:38.175Z,19.00
2018-04-10T11:18:05.645Z,19.10
2018-04-10T11:20:33.901Z,19.10
2018-04-10T11:23:01.414Z,19.10
2018-04-10T11:25:28.903Z,19.10
2018-04-10T11:27:56.710Z,19.20
2018-04-10T11:30:24.987Z,19.50
2018-04-10T11:32:53.244Z,19.50
2018-04-10T11:35:20.782Z,19.50
2018-04-10T11:37:48.249Z,19.50
2018-04-10T11:40:15.721Z,19.40
2018-04-10T11:42:43.219Z,19.50
2018-04-10T11:45:10.700Z,19.60
2018-04-10T11:47:38.207Z,19.70
2018-04-10T11:50:06.513Z,19.90
2018-04-10T11:52:33.985Z,19.90
2018-04-10T11:55:01.477Z,20.00
2018-04-10T11:57:28.949Z,19.90
2018-04-10T11:59:57.238Z,19.80
2018-04-10T12:02:25.527Z,19.80
2018-04-10T12:04:53.010Z,19.80
2018-04-10T12:07:20.473Z,19.70
2018-04-10T12:09:48.726Z,19.90
2018-04-10T12:12:16.278Z,19.80
2018-04-10T12:14:43.763Z,19.70
2018-04-10T12:17:11.232Z,19.70
2018-04-10T12:19:38.771Z,19.70
2018-04-10T12:22:06.279Z,19.80
2018-04-10T12:24:34.572Z,19.80
2018-04-10T12:27:02.852Z,19.60
2018-04-10T12:29:31.156Z,19.50
2018-04-10T12:31:58.716Z,19.50
2018-04-10T12:34:26.191Z,19.50
2018-04-10T12:36:53.720Z,19.60
2018-04-10T12:39:21.241Z,19.80
2018-04-10T12:41:48.702Z,20.00
2018-04-10T12:44:16.929Z,20.20
2018-04-10T12:46:44.456Z,20.20
2018-04-10T12:49:11.926Z,20.20
2018-04-10T12:51:39.421Z,20.10
2018-04-10T12:54:06.957Z,19.90
2018-04-10T12:56:34.471Z,19.80
2018-04-10T12:59:02.709Z,19.70
2018-04-10T13:01:30.221Z,19.70
2018-04-10T13:03:57.709Z,19.80
2018-04-10T13:06:25.212Z,19.70
2018-04-10T13:08:53.485Z,19.60
2018-04-10T13:11:21.790Z,19.70
2018-04-10T13:13:49.289Z,19.70
2018-04-10T13:16:16.841Z,19.80
2018-04-10T13:18:45.125Z,19.70
2018-04-10T13:21:12.606Z,19.70
2018-04-10T13:23:40.905Z,19.60
2018-04-10T13:26:09.149Z,19.50
2018-04-10T13:28:36.648Z,19.50
2018-04-10T13:31:04.121Z,19.50
2018-04-10T13:33:31.650Z,19.50
2018-04-10T13:35:59.896Z,19.40
2018-04-10T13:38:27.402Z,19.40
2018-04-10T13:40:54.873Z,19.30
2018-04-10T13:43:22.977Z,19.40
2018-04-10T13:45:50.506Z,19.30
2018-04-10T13:48:18.025Z,19.30
2018-04-10T13:50:46.298Z,19.30
2018-04-10T13:53:14.591Z,19.20
2018-04-10T13:55:42.153Z,19.20
2018-04-10T13:58:09.625Z,19.10
2018-04-10T14:00:37.139Z,19.10
2018-04-10T14:03:05.416Z,19.00
2018-04-10T14:05:33.657Z,19.00
2018-04-10T14:08:01.134Z,18.90
2018-04-10T14:10:28.608Z,18.90
2018-04-10T14:12:56.894Z,18.80
2018-04-10T14:15:25.156Z,18.70
2018-04-10T14:17:53.420Z,18.80
2018-04-10T14:20:20.916Z,18.70
2018-04-10T14:22:48.402Z,18.80
2018-04-10T14:25:15.874Z,18.90
2018-04-10T14:27:43.416Z,18.80
2018-04-10T14:30:10.874Z,18.80
2018-04-10T14:32:38.443Z,18.70
2018-04-10T14:35:05.932Z,18.70
2018-04-10T14:37:34.170Z,18.60
2018-04-10T14:40:01.645Z,18.60
2018-04-10T14:42:29.179Z,18.50
2018-04-10T14:44:56.667Z,18.70
2018-04-10T14:47:24.181Z,18.70
2018-04-10T14:49:51.726Z,18.80
2018-04-10T14:52:19.206Z,18.80
2018-04-10T14:54:46.872Z,18.70
2018-04-10T14:57:14.393Z,18.60
2018-04-10T14:59:41.889Z,18.50
2018-04-10T15:02:09.395Z,18.60
2018-04-10T15:04:37.724Z,18.40
2018-04-10T15:07:05.182Z,18.40
2018-04-10T15:09:32.641Z,18.40
2018-04-10T15:12:00.142Z,18.50
2018-04-10T15:14:28.414Z,18.60
2018-04-10T15:16:56.683Z,18.60
2018-04-10T15:19:24.195Z,18.60
2018-04-10T15:21:51.657Z,18.60
2018-04-10T15:24:19.158Z,18.50
2018-04-10T15:26:46.638Z,18.50
2018-04-10T15:29:14.125Z,18.40
2018-04-10T15:31:41.644Z,18.40
2018-04-10T15:34:09.933Z,18.10
2018-04-10T15:36:37.710Z,18.10
2018-04-10T15:39:06.086Z,17.90
2018-04-10T15:41:33.594Z,17.80
2018-04-10T15:44:01.113Z,17.70
2018-04-10T15:46:28.590Z,17.60
2018-04-10T15:48:56.077Z,17.50
2018-04-10T15:51:24.349Z,17.50
2018-04-10T15:53:51.867Z,17.50
2018-04-10T15:56:19.391Z,17.60
2018-04-10T15:58:47.618Z,17.70
2018-04-10T16:01:15.135Z,17.70
2018-04-10T16:03:42.643Z,17.70
2018-04-10T16:11:15.096Z,17.80
2018-04-10T16:13:42.598Z,17.90
2018-04-10T16:16:10.062Z,17.80
2018-04-10T16:18:37.570Z,17.90
2018-04-10T16:21:05.082Z,17.80
2018-04-10T16:23:32.542Z,17.80
2018-04-10T16:26:00.002Z,17.80
2018-04-10T16:28:27.485Z,17.70
2018-04-10T16:30:54.999Z,17.70
2018-04-10T16:33:22.491Z,17.60
2018-04-10T16:35:50.746Z,17.50
2018-04-10T16:38:18.213Z,17.50
2018-04-10T16:40:46.491Z,17.40
2018-04-10T16:43:13.998Z,17.40
2018-04-10T16:45:41.494Z,17.30
2018-04-10T16:48:09.130Z,17.30
2018-04-10T16:50:36.671Z,17.20
2018-04-10T16:53:04.175Z,17.20
2018-04-10T16:55:31.676Z,17.20
2018-04-10T16:57:59.161Z,17.10
2018-04-10T17:00:26.663Z,17.00
2018-04-10T17:02:55.002Z,16.80
2018-04-10T17:05:22.492Z,16.80
2018-04-10T17:07:50.741Z,16.80
2018-04-10T17:10:18.239Z,16.80
2018-04-10T17:12:46.629Z,16.80
2018-04-10T17:15:14.125Z,16.70
2018-04-10T17:17:42.613Z,16.60
2018-04-10T17:20:10.115Z,16.60
2018-04-10T17:22:38.355Z,16.40
2018-04-10T17:25:05.841Z,16.40
2018-04-10T17:27:34.077Z,16.30
2018-04-10T17:30:01.578Z,16.30
2018-04-10T17:32:29.892Z,16.10
2018-04-10T17:34:57.407Z,16.10
2018-04-10T17:37:25.690Z,15.90
2018-04-10T17:39:53.961Z,15.90
2018-04-10T17:42:22.276Z,15.80
2018-04-10T17:44:49.830Z,15.80
2018-04-10T17:47:17.356Z,15.80
2018-04-10T17:49:46.625Z,15.80
2018-04-10T17:52:14.141Z,15.70
2018-04-10T17:54:41.625Z,15.70
2018-04-10T17:57:11.096Z,15.60
2018-04-10T17:59:38.578Z,15.70
2018-04-10T18:02:07.049Z,15.70
2018-04-10T18:04:34.519Z,15.70
2018-04-10T18:07:02.043Z,15.70
2018-04-10T18:09:29.581Z,15.60
2018-04-10T18:11:57.867Z,15.50
2018-04-10T18:14:25.407Z,15.50
2018-04-10T18:16:54.556Z,15.30
2018-04-10T18:19:22.015Z,15.30
2018-04-10T18:21:49.544Z,15.20
2018-04-10T18:24:17.047Z,15.20
2018-04-10T18:26:45.544Z,15.10
2018-04-10T18:29:13.016Z,15.10
2018-04-10T18:31:41.294Z,15.00
2018-04-10T18:34:09.537Z,15.00
2018-04-10T18:36:37.074Z,15.00
2018-04-10T18:39:05.470Z,15.00
2018-04-10T18:41:33.024Z,14.90
2018-04-10T18:44:00.642Z,14.90
2018-04-10T18:46:28.109Z,14.90
2018-04-10T18:48:55.655Z,14.90
2018-04-10T18:51:23.953Z,14.70
2018-04-10T18:53:51.471Z,14.70
2018-04-10T18:56:19.036Z,14.70
2018-04-10T18:58:47.337Z,14.60
2018-04-10T19:01:14.858Z,14.60
2018-04-10T19:03:42.333Z,14.50
2018-04-10T19:06:11.598Z,14.30
2018-04-10T19:08:39.096Z,14.30
2018-04-10T19:11:06.633Z,14.30
2018-04-10T19:13:34.163Z,14.20
2018-04-10T19:16:01.642Z,14.10
2018-04-10T19:18:29.122Z,14.00
2018-04-10T19:20:57.405Z,13.80
2018-04-10T19:23:24.915Z,13.80
2018-04-10T19:25:52.401Z,13.80
2018-04-10T19:28:21.675Z,13.50
2018-04-10T19:30:49.216Z,13.50
2018-04-10T19:33:16.744Z,13.40
2018-04-10T19:35:44.263Z,13.30
2018-04-10T19:38:11.767Z,13.20
2018-04-10T19:40:39.291Z,13.10
2018-04-10T19:43:06.757Z,13.30
2018-04-10T19:45:35.025Z,13.50
2018-04-10T19:48:03.326Z,13.50
2018-04-10T19:50:30.896Z,13.40
2018-04-10T19:52:58.478Z,13.50
2018-04-10T19:55:25.993Z,13.50
2018-04-10T19:57:54.262Z,13.50
2018-04-10T20:00:22.514Z,13.40
2018-04-10T20:02:50.972Z,13.40
2018-04-10T20:05:18.521Z,13.30
2018-04-10T20:07:47.009Z,13.40
2018-04-10T20:10:14.521Z,13.30
2018-04-10T20:12:42.771Z,13.20
2018-04-10T20:15:10.256Z,13.20
2018-04-10T20:17:37.736Z,13.20
2018-04-10T20:20:05.218Z,13.10
2018-04-10T20:22:32.713Z,13.20
2018-04-10T20:25:00.953Z,13.00
2018-04-10T20:27:28.500Z,13.00
2018-04-10T20:29:57.952Z,12.90
2018-04-10T20:32:26.235Z,13.20
2018-04-10T20:34:54.519Z,13.20
2018-04-10T20:37:22.039Z,13.20
2018-04-10T20:39:49.557Z,13.30
2018-04-10T20:42:17.066Z,13.30
2018-04-10T20:44:44.650Z,13.40
2018-04-10T20:47:14.817Z,13.40
2018-04-10T20:49:42.331Z,13.40
2018-04-10T20:52:10.601Z,13.40
2018-04-10T20:54:38.903Z,13.40
2018-04-10T20:57:06.417Z,13.40
2018-04-10T20:59:33.924Z,13.30
2018-04-10T21:02:01.418Z,13.30
2018-04-10T21:04:28.934Z,13.20
2018-04-10T21:06:56.453Z,13.20
2018-04-10T21:09:23.963Z,13.10
2018-04-10T21:11:51.429Z,13.00
2018-04-10T21:14:18.912Z,13.00
2018-04-10T21:16:46.452Z,12.90
2018-04-10T21:19:13.984Z,12.70
2018-04-10T21:21:41.453Z,12.60
2018-04-10T21:24:09.004Z,12.50
2018-04-10T21:26:36.509Z,12.40
2018-04-10T21:29:04.016Z,12.30
2018-04-10T21:31:31.550Z,12.30
2018-04-10T21:33:59.818Z,12.30
2018-04-10T21:36:28.111Z,12.50
2018-04-10T21:38:55.679Z,12.50
2018-04-10T21:41:23.195Z,12.50
2018-04-10T21:43:50.700Z,12.50
2018-04-10T21:46:18.251Z,12.60
2018-04-10T21:48:45.799Z,12.70
2018-04-10T21:51:14.031Z,12.70
2018-04-10T21:53:41.573Z,12.70
2018-04-10T21:56:09.062Z,12.70
2018-04-10T21:58:36.579Z,12.70
2018-04-10T22:01:04.132Z,12.70
2018-04-10T22:03:31.655Z,12.60
2018-04-10T22:05:59.933Z,12.40
2018-04-10T22:08:28.218Z,12.30
2018-04-10T22:10:55.738Z,12.30
2018-04-10T22:13:23.274Z,12.30
2018-04-10T22:15:50.824Z,12.40
2018-04-10T22:18:18.346Z,12.40
2018-04-10T22:20:46.606Z,12.50
2018-04-10T22:23:14.895Z,12.50
2018-04-10T22:25:43.138Z,12.60
2018-04-10T22:28:10.755Z,12.50
2018-04-10T22:30:38.283Z,12.60
2018-04-10T22:33:06.568Z,12.60
2018-04-10T22:35:34.106Z,12.60
2018-04-10T22:38:01.617Z,12.60
2018-04-10T22:40:29.106Z,12.50
2018-04-10T22:42:57.338Z,12.50
2018-04-10T22:45:24.880Z,12.40
2018-04-10T22:47:52.354Z,12.40
2018-04-10T22:50:19.833Z,12.50
2018-04-10T22:52:47.351Z,12.40
2018-04-10T22:55:14.887Z,12.40
2018-04-10T22:57:42.416Z,12.40
2018-04-10T23:00:10.668Z,12.30
2018-04-10T23:02:38.141Z,12.30
2018-04-10T23:05:06.485Z,12.30
2018-04-10T23:07:33.970Z,12.30
2018-04-10T23:10:01.483Z,12.30
2018-04-10T23:12:28.975Z,12.20
2018-04-10T23:14:56.508Z,12.00
2018-04-10T23:17:24.003Z,11.90
2018-04-10T23:19:51.515Z,11.80
2018-04-10T23:22:18.999Z,11.80
2018-04-10T23:24:46.499Z,11.80
2018-04-10T23:27:13.988Z,11.80
2018-04-10T23:29:42.315Z,11.80
2018-04-10T23:32:09.847Z,11.80
2018-04-10T23:34:37.333Z,11.80
2018-04-10T23:37:04.871Z,11.70
2018-04-10T23:39:32.371Z,11.70
2018-04-10T23:41:59.841Z,11.70
2018-04-10T23:44:27.328Z,11.60
2018-04-10T23:46:54.839Z,11.60
2018-04-10T23:49:22.335Z,11.50
2018-04-10T23:51:50.607Z,11.40
2018-04-10T23:54:18.908Z,11.40
2018-04-10T23:56:46.364Z,11.40
2018-04-10T23:59:13.880Z,11.30
